createdAt,value
2019-01-19T04:01:07.020Z,99.99
2019-01-19T04:02:07.513Z,99.99
2019-01-19T04:03:07.296Z,99.55
2019-01-19T04:04:07.422Z,99.55
2019-01-19T04:05:07.520Z,99.99
2019-01-19T04:06:12.659Z,99.55
2019-01-19T04:07:07.841Z,98.80
2019-01-19T04:08:07.972Z,98.33
2019-01-19T04:09:08.156Z,98.04
2019-01-19T04:10:08.310Z,98.37
2019-01-19T04:11:08.471Z,98.28
2019-01-19T04:12:08.621Z,98.47
2019-01-19T04:13:08.765Z,98.75
2019-01-19T04:14:08.915Z,98.65
2019-01-19T04:15:09.096Z,98.47
2019-01-19T04:16:09.252Z,98.65
2019-01-19T04:17:09.371Z,98.47
2019-01-19T04:18:09.523Z,98.84
2019-01-19T04:19:09.697Z,98.65
2019-01-19T04:20:09.858Z,98.65
2019-01-19T04:21:10.021Z,99.32
2019-01-19T04:22:10.160Z,99.32
2019-01-19T04:23:10.347Z,99.98
2019-01-19T04:24:10.490Z,99.41
2019-01-19T04:25:10.657Z,99.88
2019-01-19T04:26:10.797Z,99.88
2019-01-19T04:27:10.962Z,99.55
2019-01-19T04:28:11.090Z,99.79
2019-01-19T04:29:11.228Z,99.99
2019-01-19T04:30:11.361Z,99.27
2019-01-19T04:31:11.514Z,99.37
2019-01-19T04:32:11.681Z,99.74
2019-01-19T04:33:11.832Z,98.61
2019-01-19T04:34:12.030Z,98.65
2019-01-19T04:35:12.208Z,98.28
2019-01-19T04:36:12.370Z,98.18
2019-01-19T04:37:12.552Z,98.37
2019-01-19T04:38:12.689Z,98.18
2019-01-19T04:39:12.774Z,98.09
2019-01-19T04:40:12.918Z,98.84
2019-01-19T04:41:13.103Z,99.22
2019-01-19T04:42:13.207Z,98.65
2019-01-19T04:43:13.423Z,98.47
2019-01-19T04:44:13.561Z,98.18
2019-01-19T04:45:13.766Z,98.18
2019-01-19T04:46:13.838Z,97.99
2019-01-19T04:47:14.013Z,98.37
2019-01-19T04:48:14.227Z,98.28
2019-01-19T04:49:14.372Z,98.56
2019-01-19T04:50:14.451Z,98.65
2019-01-19T04:51:14.675Z,99.22
2019-01-19T04:52:14.825Z,99.88
2019-01-19T04:53:14.987Z,99.69
2019-01-19T04:54:15.131Z,99.79
2019-01-19T04:55:15.298Z,99.79
2019-01-19T04:56:15.437Z,99.79
2019-01-19T04:57:15.539Z,99.88
2019-01-19T04:58:15.739Z,99.60
2019-01-19T04:59:15.891Z,99.99
2019-01-19T05:00:17.785Z,99.99
2019-01-19T05:01:16.958Z,99.79
2019-01-19T05:02:16.318Z,99.79
2019-01-19T05:03:16.534Z,99.99
2019-01-19T05:04:16.673Z,99.60
2019-01-19T05:05:16.802Z,99.32
2019-01-19T05:06:16.974Z,98.56
2019-01-19T05:07:17.132Z,98.84
2019-01-19T05:08:17.320Z,98.09
2019-01-19T05:09:17.470Z,98.47
2019-01-19T05:10:17.573Z,98.65
2019-01-19T05:11:17.744Z,99.03
2019-01-19T05:12:17.884Z,98.84
2019-01-19T05:13:18.090Z,99.13
2019-01-19T05:14:18.162Z,99.22
2019-01-19T05:15:18.372Z,99.88
2019-01-19T05:16:18.475Z,99.51
2019-01-19T05:17:18.658Z,98.65
2019-01-19T05:18:18.750Z,98.65
2019-01-19T05:19:19.059Z,98.75
2019-01-19T05:20:19.158Z,98.47
2019-01-19T05:21:19.270Z,98.65
2019-01-19T05:22:19.480Z,98.56
2019-01-19T05:23:19.611Z,98.47
2019-01-19T05:24:19.762Z,98.65
2019-01-19T05:25:19.939Z,98.65
2019-01-19T05:26:20.024Z,98.84
2019-01-19T05:27:20.159Z,98.56
2019-01-19T05:28:20.407Z,99.41
2019-01-19T05:29:20.564Z,99.32
2019-01-19T05:30:20.694Z,99.98
2019-01-19T05:31:20.790Z,99.98
2019-01-19T05:32:20.985Z,99.99
2019-01-19T05:33:21.127Z,99.99
2019-01-19T05:34:21.345Z,99.99
2019-01-19T05:35:21.415Z,99.99
2019-01-19T05:36:21.629Z,99.99
2019-01-19T05:37:21.766Z,99.99
2019-01-19T05:38:21.906Z,99.99
2019-01-19T05:39:22.076Z,99.99
2019-01-19T05:40:22.255Z,99.99
2019-01-19T05:41:22.393Z,99.99
2019-01-19T05:42:22.540Z,99.99
2019-01-19T05:43:22.718Z,99.99
2019-01-19T05:44:22.879Z,99.99
2019-01-19T05:45:23.055Z,99.99
2019-01-19T05:46:23.136Z,99.99
2019-01-19T05:47:23.270Z,99.99
2019-01-19T05:48:23.443Z,99.79
2019-01-19T05:49:23.633Z,99.88
2019-01-19T05:50:23.779Z,99.69
2019-01-19T05:51:23.928Z,99.99
2019-01-19T05:52:24.127Z,99.51
2019-01-19T05:53:24.300Z,99.79
2019-01-19T05:54:24.372Z,99.60
2019-01-19T05:55:24.520Z,99.51
2019-01-19T05:56:24.722Z,99.88
2019-01-19T05:57:24.861Z,99.69
2019-01-19T05:58:25.033Z,99.79
2019-01-19T05:59:25.164Z,99.79
2019-01-19T06:00:25.290Z,99.51
2019-01-19T06:01:25.499Z,99.99
2019-01-19T06:02:25.589Z,99.22
2019-01-19T06:03:25.750Z,99.32
2019-01-19T06:04:25.925Z,99.41
2019-01-19T06:05:26.113Z,98.65
2019-01-19T06:06:26.201Z,98.09
2019-01-19T06:07:26.357Z,98.56
2019-01-19T06:08:26.540Z,98.28
2019-01-19T06:09:26.664Z,98.28
2019-01-19T06:10:26.804Z,98.37
2019-01-19T06:11:26.983Z,98.47
2019-01-19T06:12:27.116Z,98.75
2019-01-19T06:13:27.293Z,98.75
2019-01-19T06:14:27.448Z,98.84
2019-01-19T06:15:27.670Z,98.75
2019-01-19T06:16:27.799Z,99.03
2019-01-19T06:17:27.981Z,98.56
2019-01-19T06:18:28.121Z,98.65
2019-01-19T06:19:28.277Z,98.56
2019-01-19T06:20:28.449Z,98.56
2019-01-19T06:21:28.614Z,98.84
2019-01-19T06:22:28.724Z,98.56
2019-01-19T06:23:28.936Z,98.37
2019-01-19T06:24:29.060Z,98.47
2019-01-19T06:25:29.248Z,98.84
2019-01-19T06:26:29.316Z,98.65
2019-01-19T06:27:29.539Z,98.47
2019-01-19T06:28:29.715Z,98.84
2019-01-19T06:29:29.833Z,98.84
2019-01-19T06:30:29.995Z,99.32
2019-01-19T06:31:30.144Z,99.32
2019-01-19T06:32:30.274Z,99.41
2019-01-19T06:33:30.502Z,99.51
2019-01-19T06:34:30.589Z,98.47
2019-01-19T06:35:30.788Z,97.80
2019-01-19T06:36:30.910Z,98.09
2019-01-19T06:37:31.165Z,97.71
2019-01-19T06:38:31.269Z,97.71
2019-01-19T06:39:31.444Z,98.09
2019-01-19T06:40:31.592Z,97.71
2019-01-19T06:41:31.799Z,97.80
2019-01-19T06:42:32.022Z,97.14
2019-01-19T06:43:32.103Z,97.90
2019-01-19T06:44:32.265Z,97.66
2019-01-19T06:45:32.517Z,98.32
2019-01-19T06:46:32.640Z,97.47
2019-01-19T06:47:32.766Z,98.04
2019-01-19T06:48:32.953Z,98.04
2019-01-19T06:49:33.081Z,98.13
2019-01-19T06:50:33.255Z,98.23
2019-01-19T06:51:33.409Z,98.32
2019-01-19T06:52:33.491Z,98.79
2019-01-19T06:53:33.702Z,99.74
2019-01-19T06:54:33.839Z,99.83
2019-01-19T06:55:34.057Z,99.99
2019-01-19T06:56:34.168Z,99.99
2019-01-19T06:57:34.354Z,99.99
2019-01-19T06:58:34.511Z,99.99
2019-01-19T06:59:34.647Z,99.99
2019-01-19T07:00:34.783Z,99.99
2019-01-19T07:01:34.975Z,99.99
2019-01-19T07:02:35.127Z,99.99
2019-01-19T07:03:35.236Z,99.99
2019-01-19T07:04:35.359Z,99.79
2019-01-19T07:05:35.564Z,99.69
2019-01-19T07:06:35.748Z,99.64
2019-01-19T07:07:35.928Z,99.60
2019-01-19T07:08:36.090Z,99.41
2019-01-19T07:09:36.271Z,99.55
2019-01-19T07:10:36.366Z,99.22
2019-01-19T07:11:36.567Z,99.03
2019-01-19T07:12:36.678Z,98.65
2019-01-19T07:13:36.863Z,99.26
2019-01-19T07:14:36.987Z,99.36
2019-01-19T07:15:37.157Z,98.70
2019-01-19T07:16:37.273Z,98.98
2019-01-19T07:17:37.452Z,98.89
2019-01-19T07:18:37.530Z,98.89
2019-01-19T07:19:37.778Z,99.51
2019-01-19T07:20:37.856Z,99.51
2019-01-19T07:21:38.068Z,98.60
2019-01-19T07:22:38.257Z,98.84
2019-01-19T07:23:38.396Z,99.32
2019-01-19T07:24:38.560Z,99.51
2019-01-19T07:25:38.734Z,99.32
2019-01-19T07:26:38.829Z,99.51
2019-01-19T07:27:38.984Z,99.32
2019-01-19T07:28:39.165Z,99.03
2019-01-19T07:29:39.335Z,99.41
2019-01-19T07:30:39.461Z,99.22
2019-01-19T07:31:39.608Z,99.22
2019-01-19T07:32:39.778Z,98.75
2019-01-19T07:33:39.935Z,98.65
2019-01-19T07:34:40.079Z,98.04
2019-01-19T07:35:40.296Z,96.86
2019-01-19T07:36:40.413Z,97.33
2019-01-19T07:37:40.565Z,96.95
2019-01-19T07:38:41.422Z,96.48
2019-01-19T07:39:40.829Z,96.20
2019-01-19T07:40:41.025Z,96.67
2019-01-19T07:41:41.276Z,97.61
2019-01-19T07:42:41.437Z,97.52
2019-01-19T07:43:41.530Z,97.33
2019-01-19T07:44:41.747Z,97.43
2019-01-19T07:45:41.825Z,98.28
2019-01-19T07:46:42.028Z,97.14
2019-01-19T07:47:42.141Z,97.99
2019-01-19T07:48:42.392Z,97.33
2019-01-19T07:49:42.526Z,97.61
2019-01-19T07:50:42.672Z,97.52
2019-01-19T07:51:42.876Z,97.90
2019-01-19T07:52:43.042Z,97.90
2019-01-19T07:53:43.190Z,97.99
2019-01-19T07:54:43.345Z,97.71
2019-01-19T07:55:43.475Z,97.99
2019-01-19T07:56:43.613Z,97.14
2019-01-19T07:57:43.816Z,96.95
2019-01-19T07:58:43.979Z,97.90
2019-01-19T07:59:44.112Z,97.99
2019-01-19T08:00:44.262Z,97.52
2019-01-19T08:01:44.415Z,97.71
2019-01-19T08:02:44.622Z,97.14
2019-01-19T08:03:44.760Z,97.99
2019-01-19T08:04:44.889Z,97.99
2019-01-19T08:05:45.048Z,97.00
2019-01-19T08:06:45.225Z,97.95
2019-01-19T08:07:45.350Z,96.91
2019-01-19T08:08:45.491Z,96.72
2019-01-19T08:09:45.659Z,96.53
2019-01-19T08:10:45.847Z,96.44
2019-01-19T08:11:45.996Z,95.97
2019-01-19T08:12:46.156Z,95.78
2019-01-19T08:13:46.350Z,94.93
2019-01-19T08:14:46.420Z,94.41
2019-01-19T08:15:46.573Z,93.99
2019-01-19T08:16:46.700Z,93.42
2019-01-19T08:17:46.856Z,93.80
2019-01-19T08:18:47.011Z,93.70
2019-01-19T08:19:47.243Z,93.23
2019-01-19T08:20:47.307Z,92.76
2019-01-19T08:21:47.478Z,92.66
2019-01-19T08:22:47.629Z,92.57
2019-01-19T08:23:47.856Z,92.85
2019-01-19T08:24:47.947Z,92.66
2019-01-19T08:25:48.076Z,92.71
2019-01-19T08:26:48.220Z,92.05
2019-01-19T08:27:48.397Z,92.05
2019-01-19T08:28:48.559Z,91.11
2019-01-19T08:29:48.664Z,90.35
2019-01-19T08:30:48.859Z,89.69
2019-01-19T08:31:48.977Z,89.88
2019-01-19T08:32:49.191Z,89.40
2019-01-19T08:33:49.899Z,89.78
2019-01-19T08:34:49.515Z,90.73
2019-01-19T08:35:49.657Z,90.73
2019-01-19T08:36:49.781Z,90.82
2019-01-19T08:37:49.922Z,91.01
2019-01-19T08:38:50.099Z,91.01
2019-01-19T08:39:50.235Z,90.54
2019-01-19T08:40:50.446Z,89.78
2019-01-19T08:41:50.538Z,89.31
2019-01-19T08:42:50.790Z,89.59
2019-01-19T08:43:50.858Z,89.31
2019-01-19T08:44:51.054Z,88.84
2019-01-19T08:45:51.219Z,89.17
2019-01-19T08:46:51.349Z,88.32
2019-01-19T08:47:51.505Z,88.60
2019-01-19T08:48:51.774Z,88.23
2019-01-19T08:49:51.812Z,87.09
2019-01-19T08:50:51.947Z,86.99
2019-01-19T08:51:52.079Z,85.49
2019-01-19T08:52:52.270Z,85.05
2019-01-19T08:53:52.464Z,84.77
2019-01-19T08:54:52.598Z,84.58
2019-01-19T08:55:52.715Z,84.58
2019-01-19T08:56:52.892Z,84.68
2019-01-19T08:57:53.060Z,84.39
2019-01-19T08:58:53.227Z,84.49
2019-01-19T08:59:53.418Z,84.39
2019-01-19T09:00:53.548Z,83.54
2019-01-19T09:01:53.731Z,83.07
2019-01-19T09:02:53.847Z,83.26
2019-01-19T09:03:54.070Z,82.73
2019-01-19T09:04:54.233Z,81.70
2019-01-19T09:05:54.401Z,81.60
2019-01-19T09:06:54.512Z,81.74
2019-01-19T09:07:54.685Z,83.07
2019-01-19T09:08:54.811Z,84.01
2019-01-19T09:09:55.013Z,84.68
2019-01-19T09:10:55.192Z,84.77
2019-01-19T09:11:55.328Z,84.58
2019-01-19T09:12:55.440Z,84.39
2019-01-19T09:13:55.577Z,83.54
2019-01-19T09:14:55.795Z,83.49
2019-01-19T09:15:55.911Z,81.98
2019-01-19T09:16:56.117Z,80.94
2019-01-19T09:17:56.306Z,80.56
2019-01-19T09:18:56.429Z,80.75
2019-01-19T09:19:56.601Z,81.51
2019-01-19T09:20:56.793Z,80.94
2019-01-19T09:21:56.901Z,80.41
2019-01-19T09:22:57.100Z,79.85
2019-01-19T09:23:58.128Z,78.61
2019-01-19T09:24:57.406Z,77.29
2019-01-19T09:25:57.588Z,77.01
2019-01-19T09:26:57.737Z,77.20
2019-01-19T09:27:57.851Z,76.15
2019-01-19T09:28:58.031Z,76.25
2019-01-19T09:29:58.233Z,77.10
2019-01-19T09:30:58.338Z,76.82
2019-01-19T09:31:58.492Z,77.29
2019-01-19T09:32:58.701Z,77.58
2019-01-19T09:33:58.832Z,78.14
2019-01-19T09:34:58.999Z,77.29
2019-01-19T09:35:59.181Z,76.72
2019-01-19T09:36:59.313Z,76.72
2019-01-19T09:37:59.485Z,77.20
2019-01-19T09:38:59.686Z,77.10
2019-01-19T09:39:59.850Z,76.44
2019-01-19T09:40:59.978Z,76.00
2019-01-19T09:42:00.141Z,75.53
2019-01-19T09:43:00.291Z,74.68
2019-01-19T09:44:00.404Z,74.68
2019-01-19T09:45:00.588Z,74.87
2019-01-19T09:46:00.749Z,74.87
2019-01-19T09:47:00.984Z,74.15
2019-01-19T09:48:01.130Z,74.05
2019-01-19T09:49:01.257Z,73.86
2019-01-19T09:50:01.475Z,74.62
2019-01-19T09:51:01.592Z,73.86
2019-01-19T09:52:01.752Z,73.77
2019-01-19T09:53:01.946Z,73.58
2019-01-19T09:54:02.104Z,73.96
2019-01-19T09:55:02.928Z,73.11
2019-01-19T09:56:02.451Z,73.01
2019-01-19T09:57:02.631Z,73.01
2019-01-19T09:58:02.778Z,73.86
2019-01-19T09:59:02.963Z,72.92
2019-01-19T10:00:03.089Z,73.96
2019-01-19T10:01:03.257Z,73.20
2019-01-19T10:02:03.418Z,73.11
2019-01-19T10:03:03.628Z,72.53
2019-01-19T10:04:03.786Z,73.58
2019-01-19T10:05:03.951Z,73.30
2019-01-19T10:06:04.108Z,73.01
2019-01-19T10:07:04.225Z,72.73
2019-01-19T10:08:04.431Z,73.30
2019-01-19T10:09:05.674Z,73.20
2019-01-19T10:10:04.746Z,72.82
2019-01-19T10:11:04.921Z,71.91
2019-01-19T10:12:05.036Z,72.19
2019-01-19T10:13:05.190Z,71.50
2019-01-19T10:14:05.328Z,70.68
2019-01-19T10:15:05.503Z,70.97
2019-01-19T10:16:05.744Z,70.87
2019-01-19T10:17:05.862Z,70.97
2019-01-19T10:18:06.032Z,70.49
2019-01-19T10:19:06.188Z,70.30
2019-01-19T10:20:06.305Z,70.68
2019-01-19T10:21:06.462Z,70.97
2019-01-19T10:22:06.628Z,71.06
2019-01-19T10:23:06.825Z,70.97
2019-01-19T10:24:06.996Z,71.06
2019-01-19T10:25:07.145Z,71.06
2019-01-19T10:26:07.268Z,70.87
2019-01-19T10:27:07.455Z,70.20
2019-01-19T10:28:07.609Z,69.64
2019-01-19T10:29:07.759Z,69.64
2019-01-19T10:30:07.966Z,68.79
2019-01-19T10:31:08.085Z,70.01
2019-01-19T10:32:08.219Z,70.49
2019-01-19T10:33:08.367Z,70.68
2019-01-19T10:34:08.555Z,71.00
2019-01-19T10:35:08.762Z,71.76
2019-01-19T10:36:08.877Z,70.43
2019-01-19T10:37:09.037Z,70.62
2019-01-19T10:38:09.179Z,69.96
2019-01-19T10:39:09.378Z,70.05
2019-01-19T10:40:09.493Z,69.96
2019-01-19T10:41:09.676Z,70.72
2019-01-19T10:42:09.866Z,70.97
2019-01-19T10:43:10.022Z,70.87
2019-01-19T10:44:10.165Z,70.68
2019-01-19T10:45:10.398Z,70.72
2019-01-19T10:46:10.490Z,71.19
2019-01-19T10:47:10.607Z,71.38
2019-01-19T10:48:10.789Z,71.09
2019-01-19T10:49:10.985Z,70.05
2019-01-19T10:50:11.113Z,70.24
2019-01-19T10:51:11.358Z,70.62
2019-01-19T10:52:11.466Z,70.72
2019-01-19T10:53:11.614Z,70.62
2019-01-19T10:54:11.798Z,70.43
2019-01-19T10:55:11.973Z,70.72
2019-01-19T10:56:12.064Z,69.96
2019-01-19T10:57:12.253Z,69.48
2019-01-19T10:58:12.417Z,69.67
2019-01-19T10:59:12.577Z,70.05
2019-01-19T11:00:12.732Z,70.72
2019-01-19T11:01:12.933Z,70.15
2019-01-19T11:02:13.032Z,70.24
2019-01-19T11:03:13.251Z,70.24
2019-01-19T11:04:13.419Z,70.05
2019-01-19T11:05:13.553Z,70.05
2019-01-19T11:06:13.679Z,69.67
2019-01-19T11:07:13.856Z,68.91
2019-01-19T11:08:14.076Z,68.44
2019-01-19T11:09:14.208Z,68.82
2019-01-19T11:10:14.398Z,69.57
2019-01-19T11:11:14.543Z,69.77
2019-01-19T11:12:14.652Z,69.67
2019-01-19T11:13:14.870Z,69.29
2019-01-19T11:14:15.017Z,68.73
2019-01-19T11:15:15.219Z,67.71
2019-01-19T11:16:15.346Z,67.33
2019-01-19T11:17:15.534Z,67.71
2019-01-19T11:18:15.699Z,66.58
2019-01-19T11:19:15.874Z,66.20
2019-01-19T11:20:15.970Z,66.10
2019-01-19T11:21:16.140Z,65.85
2019-01-19T11:22:16.350Z,65.95
2019-01-19T11:23:16.500Z,66.33
2019-01-19T11:24:16.661Z,65.95
2019-01-19T11:25:16.815Z,65.85
2019-01-19T11:26:16.949Z,64.81
2019-01-19T11:27:17.114Z,64.81
2019-01-19T11:28:17.278Z,64.81
2019-01-19T11:29:17.469Z,64.62
2019-01-19T11:30:17.673Z,64.90
2019-01-19T11:31:17.784Z,64.52
2019-01-19T11:32:17.968Z,63.32
2019-01-19T11:33:18.111Z,62.46
2019-01-19T11:34:18.299Z,62.75
2019-01-19T11:35:18.468Z,63.70
2019-01-19T11:36:18.632Z,63.32
2019-01-19T11:37:18.763Z,62.56
2019-01-19T11:38:20.134Z,61.33
2019-01-19T11:39:19.475Z,60.22
2019-01-19T11:40:19.259Z,60.31
2019-01-19T11:41:19.442Z,60.53
2019-01-19T11:42:19.587Z,60.44
2019-01-19T11:43:19.743Z,60.35
2019-01-19T11:44:19.881Z,59.58
2019-01-19T11:45:20.068Z,58.95
2019-01-19T11:46:20.263Z,58.76
2019-01-19T11:47:20.387Z,58.37
2019-01-19T11:48:20.529Z,57.81
2019-01-19T11:49:20.723Z,57.43
2019-01-19T11:50:20.901Z,56.51
2019-01-19T11:51:21.016Z,56.31
2019-01-19T11:52:21.199Z,55.55
2019-01-19T11:53:21.317Z,55.36
2019-01-19T11:54:21.553Z,55.65
2019-01-19T11:55:21.734Z,54.89
2019-01-19T11:56:21.870Z,54.89
2019-01-19T11:57:21.996Z,55.46
2019-01-19T11:58:22.222Z,56.10
2019-01-19T11:59:22.347Z,56.95
2019-01-19T12:00:22.510Z,57.43
2019-01-19T12:01:22.699Z,57.14
2019-01-19T12:02:22.833Z,57.30
2019-01-19T12:03:23.007Z,57.59
2019-01-19T12:04:23.198Z,57.59
2019-01-19T12:05:23.367Z,57.52
2019-01-19T12:06:23.523Z,57.62
2019-01-19T12:07:23.718Z,57.55
2019-01-19T12:08:23.845Z,56.51
2019-01-19T12:09:24.010Z,55.46
2019-01-19T12:10:24.201Z,54.82
2019-01-19T12:11:24.318Z,54.25
2019-01-19T12:12:24.549Z,53.58
2019-01-19T12:13:24.698Z,52.84
2019-01-19T12:14:24.864Z,51.70
2019-01-19T12:15:24.970Z,52.37
2019-01-19T12:16:25.169Z,51.35
2019-01-19T12:17:25.381Z,50.52
2019-01-19T12:18:25.529Z,49.59
2019-01-19T12:19:25.703Z,48.16
2019-01-19T12:20:25.895Z,46.94
2019-01-19T12:21:26.019Z,46.75
2019-01-19T12:22:26.202Z,46.47
2019-01-19T12:23:26.376Z,45.15
2019-01-19T12:24:26.563Z,44.98
2019-01-19T12:25:26.759Z,45.27
2019-01-19T12:26:26.938Z,45.17
2019-01-19T12:27:27.167Z,44.70
2019-01-19T12:28:27.308Z,45.25
2019-01-19T12:29:27.535Z,45.63
2019-01-19T12:30:27.638Z,46.08
2019-01-19T12:31:27.818Z,45.72
2019-01-19T12:32:28.022Z,45.34
2019-01-19T12:33:28.190Z,45.46
2019-01-19T12:34:28.345Z,44.51
2019-01-19T12:35:28.482Z,44.22
2019-01-19T12:36:28.671Z,44.02
2019-01-19T12:37:28.839Z,43.95
2019-01-19T12:38:29.019Z,43.57
2019-01-19T12:39:29.187Z,43.48
2019-01-19T12:40:29.326Z,43.93
2019-01-19T12:41:29.552Z,44.34
2019-01-19T12:42:29.674Z,44.79
2019-01-19T12:43:29.910Z,44.60
2019-01-19T12:44:30.047Z,44.89
2019-01-19T12:45:30.259Z,45.67
2019-01-19T12:46:30.428Z,45.01
2019-01-19T12:47:30.584Z,44.26
2019-01-19T12:48:30.763Z,43.98
2019-01-19T12:49:31.015Z,43.57
2019-01-19T12:50:31.135Z,43.19
2019-01-19T12:51:31.296Z,43.38
2019-01-19T12:52:31.471Z,43.55
2019-01-19T12:53:31.622Z,44.98
2019-01-19T12:54:31.859Z,44.38
2019-01-19T12:55:32.015Z,44.02
2019-01-19T12:56:32.277Z,44.02
2019-01-19T12:57:32.345Z,44.20
2019-01-19T12:58:32.536Z,44.48
2019-01-19T12:59:32.740Z,45.06
2019-01-19T13:00:32.881Z,45.06
2019-01-19T13:01:33.045Z,45.06
2019-01-19T13:02:33.179Z,45.08
2019-01-19T13:03:33.436Z,45.06
2019-01-19T13:04:33.570Z,44.77
2019-01-19T13:05:33.710Z,45.06
2019-01-19T13:06:33.930Z,44.70
2019-01-19T13:07:34.093Z,44.98
2019-01-19T13:08:34.722Z,45.08
2019-01-19T13:09:34.444Z,45.75
2019-01-19T13:10:34.650Z,45.56
2019-01-19T13:11:34.789Z,46.97
2019-01-19T13:12:34.984Z,47.61
2019-01-19T13:13:36.054Z,48.16
2019-01-19T13:14:35.464Z,49.28
2019-01-19T13:15:35.574Z,51.16
2019-01-19T13:16:35.934Z,53.39
2019-01-19T13:17:36.429Z,55.49
2019-01-19T13:18:36.229Z,57.26
2019-01-19T13:19:36.150Z,57.45
2019-01-19T13:20:36.393Z,57.84
2019-01-19T13:21:36.603Z,58.40
2019-01-19T13:22:36.803Z,57.74
2019-01-19T13:23:36.874Z,58.06
2019-01-19T13:24:37.113Z,56.24
2019-01-19T13:25:37.256Z,55.68
2019-01-19T13:26:37.761Z,54.75
2019-01-19T13:27:38.025Z,53.61
2019-01-19T13:28:38.228Z,54.56
2019-01-19T13:29:38.264Z,54.37
2019-01-19T13:30:38.544Z,53.49
2019-01-19T13:31:38.528Z,53.01
2019-01-19T13:32:38.721Z,53.94
2019-01-19T13:33:39.120Z,55.90
2019-01-19T13:34:38.995Z,57.43
2019-01-19T13:35:39.240Z,57.78
2019-01-19T13:36:39.739Z,59.01
2019-01-19T13:37:39.605Z,58.35
2019-01-19T13:38:42.011Z,57.59
2019-01-19T13:39:40.045Z,57.11
2019-01-19T13:40:40.131Z,55.59
2019-01-19T13:41:40.389Z,56.35
2019-01-19T13:42:40.418Z,55.90
2019-01-19T13:43:40.620Z,54.38
2019-01-19T13:44:40.826Z,54.22
2019-01-19T13:45:40.780Z,54.98
2019-01-19T13:46:41.678Z,54.50
2019-01-19T13:47:41.281Z,53.30
2019-01-19T13:48:41.269Z,53.49
2019-01-19T13:49:41.588Z,52.75
2019-01-19T13:50:41.821Z,50.59
2019-01-19T13:51:41.831Z,49.37
2019-01-19T13:52:42.308Z,48.32
2019-01-19T13:53:42.448Z,47.02
2019-01-19T13:54:42.407Z,45.49
2019-01-19T13:55:42.512Z,44.82
2019-01-19T13:56:43.022Z,44.73
2019-01-19T13:57:42.956Z,45.79
2019-01-19T13:58:43.021Z,45.99
2019-01-19T13:59:43.253Z,45.97
2019-01-19T14:00:43.396Z,44.34
2019-01-19T14:01:43.563Z,45.20
2019-01-19T14:02:43.743Z,46.06
2019-01-19T14:03:43.982Z,45.87
2019-01-19T14:04:44.276Z,44.89
2019-01-19T14:05:44.470Z,45.75
2019-01-19T14:06:44.444Z,45.28
2019-01-19T14:07:44.748Z,45.25
2019-01-19T14:08:49.332Z,45.06
2019-01-19T14:09:45.241Z,45.73
2019-01-19T14:10:45.184Z,45.73
2019-01-19T14:11:45.351Z,46.58
2019-01-19T14:12:45.495Z,46.58
2019-01-19T14:13:45.653Z,45.44
2019-01-19T14:14:45.857Z,44.89
2019-01-19T14:15:46.029Z,44.80
2019-01-19T14:16:46.155Z,44.32
2019-01-19T14:17:46.367Z,44.04
2019-01-19T14:18:46.568Z,44.13
2019-01-19T14:19:46.756Z,44.80
2019-01-19T14:20:46.820Z,44.80
2019-01-19T14:21:47.146Z,45.73
2019-01-19T14:22:47.233Z,45.83
2019-01-19T14:23:47.409Z,46.01
2019-01-19T14:24:47.566Z,46.01
2019-01-19T14:25:47.690Z,44.68
2019-01-19T14:26:47.877Z,45.18
2019-01-19T14:27:48.081Z,44.80
2019-01-19T14:28:48.266Z,43.65
2019-01-19T14:29:48.366Z,43.37
2019-01-19T14:30:48.551Z,41.96
2019-01-19T14:31:48.706Z,40.64
2019-01-19T14:32:48.961Z,40.64
2019-01-19T14:33:49.031Z,40.55
2019-01-19T14:34:49.189Z,40.26
2019-01-19T14:35:49.362Z,41.79
2019-01-19T14:36:49.539Z,40.45
2019-01-19T14:37:49.691Z,40.24
2019-01-19T14:38:56.339Z,41.20
2019-01-19T14:39:50.108Z,41.20
2019-01-19T14:40:50.237Z,41.75
2019-01-19T14:41:50.432Z,42.87
2019-01-19T14:42:50.623Z,43.46
2019-01-19T14:43:50.734Z,42.60
2019-01-19T14:44:50.924Z,42.99
2019-01-19T14:45:51.105Z,42.77
2019-01-19T14:46:51.257Z,43.16
2019-01-19T14:47:51.444Z,44.56
2019-01-19T14:48:51.636Z,44.75
2019-01-19T14:49:51.684Z,44.96
2019-01-19T14:50:51.873Z,44.75
2019-01-19T14:51:52.037Z,44.09
2019-01-19T14:52:52.178Z,43.49
2019-01-19T14:53:52.345Z,44.52
2019-01-19T14:54:52.538Z,44.87
2019-01-19T14:55:52.757Z,45.16
2019-01-19T14:56:52.966Z,45.64
2019-01-19T14:57:53.155Z,46.68
2019-01-19T14:58:53.278Z,46.40
2019-01-19T14:59:53.420Z,45.73
2019-01-19T15:00:53.605Z,46.01
2019-01-19T15:01:53.721Z,46.68
2019-01-19T15:02:53.940Z,46.14
2019-01-19T15:03:54.073Z,46.33
2019-01-19T15:04:54.219Z,46.54
2019-01-19T15:05:54.432Z,45.21
2019-01-19T15:06:54.637Z,44.90
2019-01-19T15:07:54.751Z,45.73
2019-01-19T15:08:54.900Z,46.66
2019-01-19T15:09:55.062Z,48.35
2019-01-19T15:10:55.327Z,49.18
2019-01-19T15:11:55.436Z,50.38
2019-01-19T15:12:55.633Z,51.24
2019-01-19T15:13:55.708Z,52.85
2019-01-19T15:14:55.928Z,53.77
2019-01-19T15:15:56.054Z,54.34
2019-01-19T15:16:56.260Z,55.17
2019-01-19T15:17:56.348Z,56.97
2019-01-19T15:18:56.550Z,57.35
2019-01-19T15:19:56.750Z,58.29
2019-01-19T15:20:56.884Z,58.96
2019-01-19T15:21:57.026Z,59.15
2019-01-19T15:22:57.255Z,60.00
2019-01-19T15:23:57.399Z,60.06
2019-01-19T15:24:57.515Z,60.83
2019-01-19T15:25:57.764Z,61.40
2019-01-19T15:26:57.887Z,62.15
2019-01-19T15:27:58.091Z,62.91
2019-01-19T15:28:58.205Z,63.29
2019-01-19T15:29:58.326Z,63.76
2019-01-19T15:30:58.535Z,65.56
2019-01-19T15:31:58.682Z,65.53
2019-01-19T15:32:58.861Z,66.47
2019-01-19T15:33:59.002Z,66.86
2019-01-19T15:34:59.215Z,66.76
2019-01-19T15:35:59.319Z,66.47
2019-01-19T15:36:59.475Z,67.43
2019-01-19T15:37:59.707Z,68.56
2019-01-19T15:38:59.862Z,68.65
2019-01-19T15:39:59.969Z,68.37
2019-01-19T15:41:00.149Z,69.03
2019-01-19T15:42:00.293Z,69.79
2019-01-19T15:43:00.476Z,70.64
2019-01-19T15:44:00.552Z,71.12
2019-01-19T15:45:00.737Z,71.08
2019-01-19T15:46:00.898Z,72.12
2019-01-19T15:47:01.098Z,72.03
2019-01-19T15:48:01.272Z,71.36
2019-01-19T15:49:01.378Z,71.84
2019-01-19T15:50:01.557Z,71.74
2019-01-19T15:51:01.793Z,72.50
2019-01-19T15:52:01.910Z,72.22
2019-01-19T15:53:02.100Z,71.93
2019-01-19T15:54:02.289Z,71.46
2019-01-19T15:55:02.384Z,71.65
2019-01-19T15:56:02.523Z,72.50
2019-01-19T15:57:02.757Z,73.07
2019-01-19T15:58:02.969Z,73.83
2019-01-19T15:59:03.108Z,74.30
2019-01-19T16:00:03.269Z,73.92
2019-01-19T16:01:03.476Z,74.40
2019-01-19T16:02:03.574Z,75.15
2019-01-19T16:03:03.757Z,75.15
2019-01-19T16:04:03.888Z,75.05
2019-01-19T16:05:04.063Z,74.64
2019-01-19T16:06:04.205Z,75.87
2019-01-19T16:07:04.335Z,75.78
2019-01-19T16:08:04.511Z,76.82
2019-01-19T16:09:04.705Z,76.63
2019-01-19T16:10:04.849Z,76.44
2019-01-19T16:11:04.986Z,77.29
2019-01-19T16:12:05.192Z,77.20
2019-01-19T16:13:05.328Z,77.10
2019-01-19T16:14:05.471Z,77.95
2019-01-19T16:15:05.762Z,78.61
2019-01-19T16:16:05.900Z,77.48
2019-01-19T16:17:06.050Z,77.76
2019-01-19T16:18:06.206Z,78.14
2019-01-19T16:19:06.365Z,77.95
2019-01-19T16:20:06.589Z,78.61
2019-01-19T16:21:06.683Z,79.09
2019-01-19T16:22:06.864Z,78.42
2019-01-19T16:23:07.056Z,76.91
2019-01-19T16:24:07.180Z,76.91
2019-01-19T16:25:07.423Z,77.39
2019-01-19T16:26:07.491Z,77.76
2019-01-19T16:27:07.609Z,78.33
2019-01-19T16:28:07.763Z,79.37
2019-01-19T16:29:07.918Z,78.42
2019-01-19T16:30:08.119Z,78.42
2019-01-19T16:31:08.160Z,77.76
2019-01-19T16:32:08.396Z,78.42
2019-01-19T16:33:08.568Z,78.58
2019-01-19T16:34:08.768Z,79.33
2019-01-19T16:35:08.915Z,79.52
2019-01-19T16:36:09.127Z,79.61
2019-01-19T16:37:09.216Z,79.90
2019-01-19T16:38:09.399Z,80.46
2019-01-19T16:39:09.608Z,80.08
2019-01-19T16:40:09.677Z,79.43
2019-01-19T16:41:09.843Z,80.37
2019-01-19T16:42:10.022Z,81.32
2019-01-19T16:43:10.274Z,81.22
2019-01-19T16:44:10.327Z,81.32
2019-01-19T16:45:10.494Z,81.60
2019-01-19T16:46:10.652Z,81.22
2019-01-19T16:47:10.801Z,81.13
2019-01-19T16:48:10.981Z,81.32
2019-01-19T16:49:11.071Z,81.32
2019-01-19T16:50:12.186Z,80.56
2019-01-19T16:51:11.513Z,80.75
2019-01-19T16:52:11.684Z,80.65
2019-01-19T16:53:11.772Z,80.84
2019-01-19T16:54:11.929Z,81.13
2019-01-19T16:55:12.205Z,81.51